Plainview, Louisiana
Current Conditions -  °F | °C
As of 11:35 PM on Friday 24 Oct 2014 (Local Time) from KBXA Reporting Station
NA  
Wind Chill: 50°   Ceiling: NA
Heat Index: 50°   Visibility: 10mi
Dew Point: 46°   Wind: 0mph
Humidity: 86%   Direction: NA
Pressure: 30.12"   Gusts: NA
Location:  30.7419°N, 89.8828°W
Report Text: KBXA 250435Z AUTO 00000KT 10SM 10/08 A3012 RMK AO2 T01010078
Loading
Personal Weather Stations






























Interactive Weather Map
Tropical Storm Tracking
New forecast layout! Learn more

10-Day Weather Forecast

Advertisements
Track Severe Weather on mobile